ADDS TAF Board (Experimental) INFO Settings
IDs:

KMCI - Kansas City Intl, MO, US

Issued at 0520 UTC 28 Aug 2015
Updated at: 0937 UTC 28 Aug 2015
Time0853Z 28/10Z 28/11Z 28/12Z 28/13Z 28/14Z 28/15Z 28/16Z 28/17Z 28/18Z 28/19Z 28/20Z 28/21Z 28/22Z
Type OBS PRVL PRVL PRVL PRVL PRVL PRVL PRVL PRVL PRVL PRVL PRVL PRVL PRVL
VIS 10 5 5 5 5 5 5 >6 >6 >6 >6 >6 >6 >6
CIG 150 70 70 70 70 70 70 100 100 100 100 100 40 40
Cover OVC BKN BKN BKN BKN BKN BKN BKN BKN BKN BKN BKN BKN BKN
FltCat VFR MVFR MVFR MVFR MVFR MVFR MVFR VFR VFR VFR VFR VFR VFR VFR
WX -- -SHRA VCTS -SHRA VCTS -SHRA VCTS -SHRA VCTS -SHRA VCTS -SHRA VCTS -- -- -- -- -- VCTS VCTS
WDir 160 190 190 190 190 190 190 200 200 200 200 200 220 220
WSpd 8 9 9 9 9 9 9 15 15 15 15 15 12 12
WGst -- -- -- -- -- -- -- 22 22 22 22 22 19 19
R01/19
XWnd -4 -0 -0 -0 -0 -0 -0 2 2 2 2 2 5 5
XGst -- -- -- -- -- -- -- 3 3 3 3 3 9 9
HWnd -7 -9 -9 -9 -9 -9 -9 -15 -15 -15 -15 -15 -11 -11
HGst -- -- -- -- -- -- -- -22 -22 -22 -22 -22 -17 -17
R09/27
XWnd -7 -9 -9 -9 -9 -9 -9 -15 -15 -15 -15 -15 -10 -10
XGst -- -- -- -- -- -- -- -21 -21 -21 -21 -21 -16 -16
HWnd 4 -1 -1 -1 -1 -1 -1 -4 -4 -4 -4 -4 -7 -7
HGst -- -- -- -- -- -- -- -5 -5 -5 -5 -5 -11 -11

NOTE: TEMPO conditions in [brackets]. Keep in mind TEMPO conditions might be better (lower impact) than prevailing conditions.

Raw TAF
KMCI 280520Z 2806/2906 15011KT P6SM VCSH BKN100
  FM281000 19009KT 5SM -SHRA VCTS SCT050CB BKN070
  FM281600 20015G22KT P6SM FEW050 BKN100
  FM282100 22012G19KT P6SM VCTS BKN040CB


Raw METAR
KMCI 280853Z 16008KT 10SM BKN150 OVC200 21/18 A2997 RMK AO2 SLP140 T02110178 56005
KMCI 280753Z 16010KT 10SM BKN150 OVC200 21/18 A2997 RMK AO2 SLP140 T02110178
KMCI 280653Z 16011KT 10SM BKN150 OVC200 21/18 A2997 RMK AO2 SLP142 T02110183

METAR Board
Radar Display
Forecast Discussion

TAF Board Legend

Potential Impact
Threat None Slight Moderate High
Visibility (sm) ≥5.1 5.1>X≥3 3>X≥1 <1
Ceiling (100 ft) ≥30.1 30.1>X≥10 10>X≥5 <5
Wind Speed (kt) <10 10≤X<20 20≤X<30 ≥30
Wind Gust (kt) <15 15≤X<25 25≤X<35 ≥35
Weather No Wx Reported VCTS,-TS,-FZRA,SN TS,FZRA +TS,+FZRA,+SN